sensor_id;sensor_type;location;lat;lon;timestamp;P1;durP1;ratioP1;P2;durP2;ratioP2
9306;SDS011;4691;47.612;7.610;2022-10-13T00:00:59;53.28;;;26.42;;
9306;SDS011;4691;47.612;7.610;2022-10-13T00:03:24;42.85;;;25.35;;
9306;SDS011;4691;47.612;7.610;2022-10-13T00:05:49;39.03;;;23.50;;
9306;SDS011;4691;47.612;7.610;2022-10-13T00:08:16;56.38;;;27.40;;
9306;SDS011;4691;47.612;7.610;2022-10-13T00:10:44;49.80;;;27.42;;
9306;SDS011;4691;47.612;7.610;2022-10-13T00:13:11;43.75;;;26.17;;
9306;SDS011;4691;47.612;7.610;2022-10-13T00:15:41;45.92;;;25.73;;
9306;SDS011;4691;47.612;7.610;2022-10-13T00:18:09;54.20;;;26.65;;
9306;SDS011;4691;47.612;7.610;2022-10-13T00:20:35;46.90;;;25.98;;
9306;SDS011;4691;47.612;7.610;2022-10-13T00:23:05;45.28;;;23.55;;
9306;SDS011;4691;47.612;7.610;2022-10-13T00:25:30;44.45;;;24.90;;
9306;SDS011;4691;47.612;7.610;2022-10-13T00:27:56;49.55;;;25.60;;
9306;SDS011;4691;47.612;7.610;2022-10-13T00:30:21;53.05;;;27.20;;
9306;SDS011;4691;47.612;7.610;2022-10-13T00:32:46;47.15;;;24.77;;
9306;SDS011;4691;47.612;7.610;2022-10-13T00:35:11;53.42;;;27.67;;
9306;SDS011;4691;47.612;7.610;2022-10-13T00:37:37;50.78;;;25.20;;
9306;SDS011;4691;47.612;7.610;2022-10-13T00:40:02;47.90;;;25.50;;
9306;SDS011;4691;47.612;7.610;2022-10-13T00:42:28;47.80;;;26.17;;
9306;SDS011;4691;47.612;7.610;2022-10-13T00:45:04;39.17;;;23.65;;
9306;SDS011;4691;47.612;7.610;2022-10-13T00:48:04;46.83;;;23.67;;
9306;SDS011;4691;47.612;7.610;2022-10-13T00:50:26;52.88;;;26.88;;
9306;SDS011;4691;47.612;7.610;2022-10-13T00:52:57;50.67;;;24.70;;
9306;SDS011;4691;47.612;7.610;2022-10-13T00:55:26;49.28;;;27.17;;
9306;SDS011;4691;47.612;7.610;2022-10-13T00:57:55;44.80;;;24.83;;
9306;SDS011;4691;47.612;7.610;2022-10-13T01:00:23;50.22;;;26.45;;
9306;SDS011;4691;47.612;7.610;2022-10-13T01:02:49;47.95;;;26.15;;
9306;SDS011;4691;47.612;7.610;2022-10-13T01:05:15;45.20;;;23.58;;
9306;SDS011;4691;47.612;7.610;2022-10-13T01:07:42;54.75;;;27.52;;
9306;SDS011;4691;47.612;7.610;2022-10-13T01:10:08;46.13;;;24.40;;
9306;SDS011;4691;47.612;7.610;2022-10-13T01:15:38;56.25;;;27.00;;
9306;SDS011;4691;47.612;7.610;2022-10-13T01:18:26;51.40;;;25.65;;
9306;SDS011;4691;47.612;7.610;2022-10-13T01:24:01;46.60;;;26.13;;
9306;SDS011;4691;47.612;7.610;2022-10-13T01:32:33;46.65;;;25.88;;
9306;SDS011;4691;47.612;7.610;2022-10-13T01:35:11;47.53;;;25.25;;
9306;SDS011;4691;47.612;7.610;2022-10-13T01:37:47;59.17;;;27.98;;
9306;SDS011;4691;47.612;7.610;2022-10-13T01:40:30;53.67;;;27.13;;
9306;SDS011;4691;47.612;7.610;2022-10-13T01:43:06;58.75;;;28.65;;
9306;SDS011;4691;47.612;7.610;2022-10-13T01:45:49;50.80;;;27.27;;
9306;SDS011;4691;47.612;7.610;2022-10-13T01:48:21;56.70;;;28.55;;
9306;SDS011;4691;47.612;7.610;2022-10-13T01:50:48;61.50;;;28.25;;
9306;SDS011;4691;47.612;7.610;2022-10-13T01:53:14;52.25;;;28.20;;
9306;SDS011;4691;47.612;7.610;2022-10-13T01:55:52;46.92;;;26.13;;
9306;SDS011;4691;47.612;7.610;2022-10-13T01:58:19;48.72;;;26.83;;
9306;SDS011;4691;47.612;7.610;2022-10-13T02:00:53;59.97;;;28.67;;
9306;SDS011;4691;47.612;7.610;2022-10-13T02:06:22;57.92;;;28.95;;
9306;SDS011;4691;47.612;7.610;2022-10-13T02:08:58;55.13;;;28.58;;
9306;SDS011;4691;47.612;7.610;2022-10-13T02:11:28;55.30;;;26.30;;
9306;SDS011;4691;47.612;7.610;2022-10-13T02:13:58;47.83;;;26.45;;
9306;SDS011;4691;47.612;7.610;2022-10-13T02:19:33;52.35;;;26.30;;
9306;SDS011;4691;47.612;7.610;2022-10-13T02:22:01;60.50;;;28.63;;
9306;SDS011;4691;47.612;7.610;2022-10-13T02:24:27;52.00;;;26.40;;
9306;SDS011;4691;47.612;7.610;2022-10-13T02:26:53;56.88;;;26.88;;
9306;SDS011;4691;47.612;7.610;2022-10-13T02:29:18;47.28;;;26.27;;
9306;SDS011;4691;47.612;7.610;2022-10-13T02:31:44;53.78;;;26.40;;
9306;SDS011;4691;47.612;7.610;2022-10-13T02:34:10;59.03;;;27.48;;
9306;SDS011;4691;47.612;7.610;2022-10-13T02:36:36;54.00;;;27.77;;
9306;SDS011;4691;47.612;7.610;2022-10-13T02:39:03;59.03;;;28.15;;
9306;SDS011;4691;47.612;7.610;2022-10-13T02:41:29;52.47;;;28.85;;
9306;SDS011;4691;47.612;7.610;2022-10-13T02:43:55;45.70;;;25.77;;
9306;SDS011;4691;47.612;7.610;2022-10-13T02:46:20;46.42;;;26.63;;
9306;SDS011;4691;47.612;7.610;2022-10-13T02:48:46;57.67;;;27.98;;
9306;SDS011;4691;47.612;7.610;2022-10-13T02:51:11;48.38;;;26.80;;
9306;SDS011;4691;47.612;7.610;2022-10-13T02:53:36;47.80;;;24.92;;
9306;SDS011;4691;47.612;7.610;2022-10-13T02:56:02;43.50;;;24.20;;
9306;SDS011;4691;47.612;7.610;2022-10-13T02:58:27;57.63;;;28.42;;
9306;SDS011;4691;47.612;7.610;2022-10-13T03:00:52;51.50;;;24.77;;
9306;SDS011;4691;47.612;7.610;2022-10-13T03:03:18;62.53;;;28.70;;
9306;SDS011;4691;47.612;7.610;2022-10-13T03:05:43;49.70;;;26.83;;
9306;SDS011;4691;47.612;7.610;2022-10-13T03:08:09;54.22;;;27.35;;
9306;SDS011;4691;47.612;7.610;2022-10-13T03:10:35;62.47;;;30.23;;
9306;SDS011;4691;47.612;7.610;2022-10-13T03:13:00;58.78;;;30.55;;
9306;SDS011;4691;47.612;7.610;2022-10-13T03:15:26;67.35;;;31.98;;
9306;SDS011;4691;47.612;7.610;2022-10-13T03:17:51;61.60;;;30.20;;
9306;SDS011;4691;47.612;7.610;2022-10-13T03:20:16;65.20;;;30.88;;
9306;SDS011;4691;47.612;7.610;2022-10-13T03:22:42;52.58;;;28.08;;
9306;SDS011;4691;47.612;7.610;2022-10-13T03:25:07;64.50;;;31.48;;
9306;SDS011;4691;47.612;7.610;2022-10-13T03:27:33;59.55;;;30.27;;
9306;SDS011;4691;47.612;7.610;2022-10-13T03:29:59;60.25;;;28.83;;
9306;SDS011;4691;47.612;7.610;2022-10-13T03:32:24;55.30;;;28.33;;
9306;SDS011;4691;47.612;7.610;2022-10-13T03:34:50;57.42;;;27.85;;
9306;SDS011;4691;47.612;7.610;2022-10-13T03:37:16;50.15;;;25.92;;
9306;SDS011;4691;47.612;7.610;2022-10-13T03:39:41;47.58;;;28.40;;
9306;SDS011;4691;47.612;7.610;2022-10-13T03:42:07;47.80;;;25.40;;
9306;SDS011;4691;47.612;7.610;2022-10-13T03:44:33;55.08;;;28.83;;
9306;SDS011;4691;47.612;7.610;2022-10-13T03:46:58;65.13;;;29.58;;
9306;SDS011;4691;47.612;7.610;2022-10-13T03:49:23;64.03;;;29.38;;
9306;SDS011;4691;47.612;7.610;2022-10-13T03:51:49;54.80;;;26.23;;
9306;SDS011;4691;47.612;7.610;2022-10-13T03:54:14;49.42;;;26.70;;
9306;SDS011;4691;47.612;7.610;2022-10-13T03:56:40;66.38;;;30.58;;
9306;SDS011;4691;47.612;7.610;2022-10-13T03:59:11;56.60;;;29.13;;
9306;SDS011;4691;47.612;7.610;2022-10-13T04:01:38;45.72;;;25.42;;
9306;SDS011;4691;47.612;7.610;2022-10-13T04:04:04;60.75;;;30.50;;
9306;SDS011;4691;47.612;7.610;2022-10-13T04:06:31;69.45;;;31.45;;
9306;SDS011;4691;47.612;7.610;2022-10-13T04:08:56;68.57;;;31.02;;
9306;SDS011;4691;47.612;7.610;2022-10-13T04:11:22;71.45;;;31.08;;
9306;SDS011;4691;47.612;7.610;2022-10-13T04:13:48;70.68;;;32.17;;
9306;SDS011;4691;47.612;7.610;2022-10-13T04:16:15;54.70;;;28.02;;
9306;SDS011;4691;47.612;7.610;2022-10-13T04:18:43;63.00;;;30.80;;
9306;SDS011;4691;47.612;7.610;2022-10-13T04:21:09;72.05;;;32.63;;
9306;SDS011;4691;47.612;7.610;2022-10-13T04:26:04;55.20;;;29.08;;
9306;SDS011;4691;47.612;7.610;2022-10-13T04:28:30;45.78;;;25.83;;
9306;SDS011;4691;47.612;7.610;2022-10-13T04:33:26;72.07;;;31.40;;
9306;SDS011;4691;47.612;7.610;2022-10-13T04:35:51;48.92;;;26.70;;
9306;SDS011;4691;47.612;7.610;2022-10-13T04:38:17;67.38;;;32.10;;
9306;SDS011;4691;47.612;7.610;2022-10-13T04:40:42;49.47;;;26.55;;
9306;SDS011;4691;47.612;7.610;2022-10-13T04:43:07;74.80;;;33.53;;
9306;SDS011;4691;47.612;7.610;2022-10-13T04:45:32;76.00;;;33.50;;
9306;SDS011;4691;47.612;7.610;2022-10-13T04:47:59;76.47;;;34.67;;
9306;SDS011;4691;47.612;7.610;2022-10-13T04:50:24;58.15;;;27.60;;
9306;SDS011;4691;47.612;7.610;2022-10-13T04:52:50;71.82;;;33.92;;
9306;SDS011;4691;47.612;7.610;2022-10-13T04:55:15;72.15;;;32.63;;
9306;SDS011;4691;47.612;7.610;2022-10-13T04:57:40;72.65;;;35.70;;
9306;SDS011;4691;47.612;7.610;2022-10-13T05:00:06;78.10;;;33.70;;
9306;SDS011;4691;47.612;7.610;2022-10-13T05:02:34;74.35;;;34.10;;
9306;SDS011;4691;47.612;7.610;2022-10-13T05:04:59;82.25;;;35.85;;
9306;SDS011;4691;47.612;7.610;2022-10-13T05:07:25;81.82;;;35.60;;
9306;SDS011;4691;47.612;7.610;2022-10-13T05:09:50;68.10;;;34.50;;
9306;SDS011;4691;47.612;7.610;2022-10-13T05:12:16;91.38;;;37.17;;
9306;SDS011;4691;47.612;7.610;2022-10-13T05:14:42;72.88;;;32.13;;
9306;SDS011;4691;47.612;7.610;2022-10-13T05:17:07;66.60;;;32.40;;
9306;SDS011;4691;47.612;7.610;2022-10-13T05:19:32;78.20;;;35.75;;
9306;SDS011;4691;47.612;7.610;2022-10-13T05:21:58;75.38;;;32.92;;
9306;SDS011;4691;47.612;7.610;2022-10-13T05:24:23;58.40;;;30.08;;
9306;SDS011;4691;47.612;7.610;2022-10-13T05:27:00;71.88;;;31.38;;
9306;SDS011;4691;47.612;7.610;2022-10-13T05:29:25;66.75;;;32.45;;
9306;SDS011;4691;47.612;7.610;2022-10-13T05:31:51;77.60;;;34.40;;
9306;SDS011;4691;47.612;7.610;2022-10-13T05:34:16;72.30;;;34.03;;
9306;SDS011;4691;47.612;7.610;2022-10-13T05:36:41;82.32;;;35.10;;
9306;SDS011;4691;47.612;7.610;2022-10-13T05:39:07;64.05;;;32.30;;
9306;SDS011;4691;47.612;7.610;2022-10-13T05:41:33;60.05;;;30.33;;
9306;SDS011;4691;47.612;7.610;2022-10-13T05:44:00;59.80;;;28.85;;
9306;SDS011;4691;47.612;7.610;2022-10-13T05:46:27;60.70;;;31.92;;
9306;SDS011;4691;47.612;7.610;2022-10-13T05:48:52;74.18;;;32.83;;
9306;SDS011;4691;47.612;7.610;2022-10-13T05:51:20;72.30;;;34.15;;
9306;SDS011;4691;47.612;7.610;2022-10-13T05:56:20;62.65;;;30.15;;
9306;SDS011;4691;47.612;7.610;2022-10-13T05:58:50;77.60;;;34.42;;
9306;SDS011;4691;47.612;7.610;2022-10-13T06:01:20;73.78;;;36.22;;
9306;SDS011;4691;47.612;7.610;2022-10-13T06:06:16;70.93;;;33.00;;
9306;SDS011;4691;47.612;7.610;2022-10-13T06:08:41;78.38;;;33.95;;
9306;SDS011;4691;47.612;7.610;2022-10-13T06:11:07;74.80;;;34.90;;
9306;SDS011;4691;47.612;7.610;2022-10-13T06:13:32;75.35;;;34.55;;
9306;SDS011;4691;47.612;7.610;2022-10-13T06:15:58;76.47;;;36.10;;
9306;SDS011;4691;47.612;7.610;2022-10-13T06:18:23;70.68;;;34.95;;
9306;SDS011;4691;47.612;7.610;2022-10-13T06:20:48;67.60;;;34.15;;
9306;SDS011;4691;47.612;7.610;2022-10-13T06:23:14;56.80;;;29.80;;
9306;SDS011;4691;47.612;7.610;2022-10-13T06:25:48;59.33;;;31.15;;
9306;SDS011;4691;47.612;7.610;2022-10-13T06:28:15;68.07;;;32.22;;
9306;SDS011;4691;47.612;7.610;2022-10-13T06:30:42;67.15;;;32.85;;
9306;SDS011;4691;47.612;7.610;2022-10-13T06:33:11;68.95;;;34.90;;
9306;SDS011;4691;47.612;7.610;2022-10-13T06:35:36;56.28;;;28.83;;
9306;SDS011;4691;47.612;7.610;2022-10-13T06:38:01;72.22;;;34.97;;
9306;SDS011;4691;47.612;7.610;2022-10-13T06:40:27;64.78;;;33.00;;
9306;SDS011;4691;47.612;7.610;2022-10-13T06:42:52;74.47;;;36.20;;
9306;SDS011;4691;47.612;7.610;2022-10-13T06:45:17;68.03;;;34.40;;
9306;SDS011;4691;47.612;7.610;2022-10-13T06:47:46;83.80;;;35.65;;
9306;SDS011;4691;47.612;7.610;2022-10-13T06:50:11;75.70;;;34.22;;
9306;SDS011;4691;47.612;7.610;2022-10-13T06:52:37;69.60;;;36.67;;
9306;SDS011;4691;47.612;7.610;2022-10-13T06:55:02;79.10;;;37.08;;
9306;SDS011;4691;47.612;7.610;2022-10-13T06:57:28;76.22;;;33.63;;
9306;SDS011;4691;47.612;7.610;2022-10-13T06:59:54;70.80;;;34.38;;
9306;SDS011;4691;47.612;7.610;2022-10-13T07:02:19;67.93;;;34.35;;
9306;SDS011;4691;47.612;7.610;2022-10-13T07:04:45;77.40;;;33.97;;
9306;SDS011;4691;47.612;7.610;2022-10-13T07:07:11;71.05;;;31.67;;
9306;SDS011;4691;47.612;7.610;2022-10-13T07:09:36;68.32;;;33.00;;
9306;SDS011;4691;47.612;7.610;2022-10-13T07:12:01;68.13;;;34.50;;
9306;SDS011;4691;47.612;7.610;2022-10-13T07:14:27;72.45;;;34.85;;
9306;SDS011;4691;47.612;7.610;2022-10-13T07:16:52;56.45;;;31.02;;
9306;SDS011;4691;47.612;7.610;2022-10-13T07:19:17;60.80;;;33.38;;
9306;SDS011;4691;47.612;7.610;2022-10-13T07:21:43;68.30;;;33.15;;
9306;SDS011;4691;47.612;7.610;2022-10-13T07:24:08;61.92;;;31.08;;
9306;SDS011;4691;47.612;7.610;2022-10-13T07:26:35;54.47;;;29.88;;
9306;SDS011;4691;47.612;7.610;2022-10-13T07:29:01;63.13;;;33.03;;
9306;SDS011;4691;47.612;7.610;2022-10-13T07:31:26;48.35;;;28.77;;
9306;SDS011;4691;47.612;7.610;2022-10-13T07:33:52;54.28;;;28.63;;
9306;SDS011;4691;47.612;7.610;2022-10-13T07:36:18;59.50;;;31.63;;
9306;SDS011;4691;47.612;7.610;2022-10-13T07:38:44;51.97;;;29.70;;
9306;SDS011;4691;47.612;7.610;2022-10-13T07:41:10;63.47;;;30.77;;
9306;SDS011;4691;47.612;7.610;2022-10-13T07:43:36;54.90;;;28.95;;
9306;SDS011;4691;47.612;7.610;2022-10-13T07:46:02;63.85;;;30.77;;
9306;SDS011;4691;47.612;7.610;2022-10-13T07:48:31;57.70;;;30.02;;
9306;SDS011;4691;47.612;7.610;2022-10-13T07:50:57;59.45;;;31.58;;
9306;SDS011;4691;47.612;7.610;2022-10-13T07:53:22;55.20;;;31.83;;
9306;SDS011;4691;47.612;7.610;2022-10-13T07:55:48;46.58;;;27.65;;
9306;SDS011;4691;47.612;7.610;2022-10-13T07:58:13;56.08;;;28.83;;
9306;SDS011;4691;47.612;7.610;2022-10-13T08:00:39;68.82;;;32.65;;
9306;SDS011;4691;47.612;7.610;2022-10-13T08:03:04;49.42;;;29.58;;
9306;SDS011;4691;47.612;7.610;2022-10-13T08:05:29;52.92;;;30.45;;
9306;SDS011;4691;47.612;7.610;2022-10-13T08:07:55;59.22;;;32.17;;
9306;SDS011;4691;47.612;7.610;2022-10-13T08:10:20;61.60;;;31.92;;
9306;SDS011;4691;47.612;7.610;2022-10-13T08:12:46;62.72;;;32.00;;
9306;SDS011;4691;47.612;7.610;2022-10-13T08:15:11;56.63;;;28.77;;
9306;SDS011;4691;47.612;7.610;2022-10-13T08:17:37;53.50;;;29.65;;
9306;SDS011;4691;47.612;7.610;2022-10-13T08:20:03;57.13;;;29.77;;
9306;SDS011;4691;47.612;7.610;2022-10-13T08:22:29;58.25;;;31.40;;
9306;SDS011;4691;47.612;7.610;2022-10-13T08:24:54;49.65;;;28.95;;
9306;SDS011;4691;47.612;7.610;2022-10-13T08:27:20;65.05;;;33.33;;
9306;SDS011;4691;47.612;7.610;2022-10-13T08:29:48;65.13;;;33.42;;
9306;SDS011;4691;47.612;7.610;2022-10-13T08:32:13;61.33;;;31.23;;
9306;SDS011;4691;47.612;7.610;2022-10-13T08:34:38;76.70;;;34.35;;
9306;SDS011;4691;47.612;7.610;2022-10-13T08:37:04;53.63;;;29.75;;
9306;SDS011;4691;47.612;7.610;2022-10-13T08:39:29;40.83;;;27.20;;
9306;SDS011;4691;47.612;7.610;2022-10-13T08:41:55;63.13;;;30.67;;
9306;SDS011;4691;47.612;7.610;2022-10-13T08:44:39;59.92;;;30.77;;
9306;SDS011;4691;47.612;7.610;2022-10-13T08:49:47;52.40;;;29.30;;
9306;SDS011;4691;47.612;7.610;2022-10-13T08:52:20;45.58;;;26.67;;
9306;SDS011;4691;47.612;7.610;2022-10-13T08:54:48;54.95;;;30.85;;
9306;SDS011;4691;47.612;7.610;2022-10-13T08:57:14;55.50;;;30.50;;
9306;SDS011;4691;47.612;7.610;2022-10-13T08:59:40;59.28;;;30.95;;
9306;SDS011;4691;47.612;7.610;2022-10-13T09:02:13;51.08;;;29.85;;
9306;SDS011;4691;47.612;7.610;2022-10-13T09:04:45;49.95;;;28.60;;
9306;SDS011;4691;47.612;7.610;2022-10-13T09:07:16;51.95;;;29.20;;
9306;SDS011;4691;47.612;7.610;2022-10-13T09:09:49;57.22;;;29.90;;
9306;SDS011;4691;47.612;7.610;2022-10-13T09:12:16;53.55;;;30.77;;
9306;SDS011;4691;47.612;7.610;2022-10-13T09:14:55;47.70;;;27.73;;
9306;SDS011;4691;47.612;7.610;2022-10-13T09:17:27;44.78;;;27.05;;
9306;SDS011;4691;47.612;7.610;2022-10-13T09:19:59;49.03;;;28.50;;
9306;SDS011;4691;47.612;7.610;2022-10-13T09:22:32;51.92;;;28.38;;
9306;SDS011;4691;47.612;7.610;2022-10-13T09:27:35;56.13;;;28.08;;
9306;SDS011;4691;47.612;7.610;2022-10-13T09:33:13;47.53;;;28.02;;
9306;SDS011;4691;47.612;7.610;2022-10-13T09:35:45;52.53;;;28.70;;
9306;SDS011;4691;47.612;7.610;2022-10-13T09:38:36;46.92;;;27.15;;
9306;SDS011;4691;47.612;7.610;2022-10-13T09:41:05;48.10;;;27.80;;
9306;SDS011;4691;47.612;7.610;2022-10-13T09:46:24;46.45;;;26.90;;
9306;SDS011;4691;47.612;7.610;2022-10-13T09:51:56;43.17;;;26.20;;
9306;SDS011;4691;47.612;7.610;2022-10-13T09:54:25;56.33;;;29.48;;
9306;SDS011;4691;47.612;7.610;2022-10-13T09:57:00;49.75;;;28.48;;
9306;SDS011;4691;47.612;7.610;2022-10-13T09:59:30;52.60;;;29.15;;
9306;SDS011;4691;47.612;7.610;2022-10-13T10:01:57;40.35;;;24.83;;
9306;SDS011;4691;47.612;7.610;2022-10-13T10:04:32;40.75;;;24.33;;
9306;SDS011;4691;47.612;7.610;2022-10-13T10:07:04;42.83;;;24.42;;
9306;SDS011;4691;47.612;7.610;2022-10-13T10:12:05;30.58;;;21.10;;
9306;SDS011;4691;47.612;7.610;2022-10-13T10:14:36;38.67;;;23.45;;
9306;SDS011;4691;47.612;7.610;2022-10-13T10:22:43;35.40;;;21.35;;
9306;SDS011;4691;47.612;7.610;2022-10-13T10:30:56;33.15;;;21.85;;
9306;SDS011;4691;47.612;7.610;2022-10-13T10:33:49;40.55;;;22.60;;
9306;SDS011;4691;47.612;7.610;2022-10-13T10:36:21;24.38;;;17.20;;
9306;SDS011;4691;47.612;7.610;2022-10-13T10:39:02;33.72;;;18.23;;
9306;SDS011;4691;47.612;7.610;2022-10-13T10:41:51;33.63;;;19.55;;
9306;SDS011;4691;47.612;7.610;2022-10-13T10:44:29;31.23;;;18.13;;
9306;SDS011;4691;47.612;7.610;2022-10-13T10:47:04;26.92;;;13.07;;
9306;SDS011;4691;47.612;7.610;2022-10-13T10:49:35;18.48;;;11.77;;
9306;SDS011;4691;47.612;7.610;2022-10-13T10:52:07;29.92;;;13.68;;
9306;SDS011;4691;47.612;7.610;2022-10-13T10:55:07;21.55;;;12.43;;
9306;SDS011;4691;47.612;7.610;2022-10-13T11:00:22;22.58;;;13.02;;
9306;SDS011;4691;47.612;7.610;2022-10-13T11:08:28;18.30;;;9.27;;
9306;SDS011;4691;47.612;7.610;2022-10-13T11:13:53;28.33;;;10.23;;
9306;SDS011;4691;47.612;7.610;2022-10-13T11:19:32;28.20;;;10.90;;
9306;SDS011;4691;47.612;7.610;2022-10-13T11:37:40;18.02;;;10.43;;
9306;SDS011;4691;47.612;7.610;2022-10-13T11:40:22;22.40;;;11.30;;
9306;SDS011;4691;47.612;7.610;2022-10-13T11:51:34;17.45;;;10.63;;
9306;SDS011;4691;47.612;7.610;2022-10-13T11:56:58;18.08;;;10.45;;
9306;SDS011;4691;47.612;7.610;2022-10-13T11:59:28;20.08;;;9.75;;
9306;SDS011;4691;47.612;7.610;2022-10-13T12:01:57;22.63;;;10.75;;
9306;SDS011;4691;47.612;7.610;2022-10-13T12:04:38;19.35;;;10.35;;
9306;SDS011;4691;47.612;7.610;2022-10-13T12:07:05;18.90;;;8.27;;
9306;SDS011;4691;47.612;7.610;2022-10-13T12:09:33;20.83;;;7.53;;
9306;SDS011;4691;47.612;7.610;2022-10-13T12:12:04;18.83;;;9.15;;
9306;SDS011;4691;47.612;7.610;2022-10-13T12:14:39;20.92;;;8.73;;
9306;SDS011;4691;47.612;7.610;2022-10-13T12:20:18;15.23;;;8.05;;
9306;SDS011;4691;47.612;7.610;2022-10-13T12:22:47;16.10;;;7.80;;
9306;SDS011;4691;47.612;7.610;2022-10-13T12:25:14;20.70;;;7.50;;
9306;SDS011;4691;47.612;7.610;2022-10-13T12:27:44;17.10;;;7.85;;
9306;SDS011;4691;47.612;7.610;2022-10-13T12:30:19;21.48;;;7.18;;
9306;SDS011;4691;47.612;7.610;2022-10-13T12:32:49;16.30;;;7.10;;
9306;SDS011;4691;47.612;7.610;2022-10-13T12:38:35;20.05;;;7.00;;
9306;SDS011;4691;47.612;7.610;2022-10-13T12:45:27;17.17;;;6.70;;
9306;SDS011;4691;47.612;7.610;2022-10-13T12:55:59;18.20;;;6.95;;
9306;SDS011;4691;47.612;7.610;2022-10-13T13:06:33;15.23;;;6.65;;
9306;SDS011;4691;47.612;7.610;2022-10-13T13:12:27;17.35;;;7.03;;
9306;SDS011;4691;47.612;7.610;2022-10-13T13:15:30;12.65;;;7.15;;
9306;SDS011;4691;47.612;7.610;2022-10-13T13:21:29;21.58;;;6.90;;
9306;SDS011;4691;47.612;7.610;2022-10-13T13:24:15;18.92;;;7.07;;
9306;SDS011;4691;47.612;7.610;2022-10-13T13:30:28;13.05;;;7.25;;
9306;SDS011;4691;47.612;7.610;2022-10-13T13:33:31;21.08;;;7.07;;
9306;SDS011;4691;47.612;7.610;2022-10-13T13:36:50;16.45;;;7.28;;
9306;SDS011;4691;47.612;7.610;2022-10-13T13:39:18;16.92;;;6.43;;
9306;SDS011;4691;47.612;7.610;2022-10-13T13:41:59;14.00;;;7.13;;
9306;SDS011;4691;47.612;7.610;2022-10-13T13:45:02;18.75;;;7.82;;
9306;SDS011;4691;47.612;7.610;2022-10-13T13:48:04;12.95;;;7.05;;
9306;SDS011;4691;47.612;7.610;2022-10-13T13:50:38;15.70;;;7.68;;
9306;SDS011;4691;47.612;7.610;2022-10-13T13:53:07;13.90;;;6.88;;
9306;SDS011;4691;47.612;7.610;2022-10-13T13:55:33;22.38;;;7.93;;
9306;SDS011;4691;47.612;7.610;2022-10-13T13:58:16;15.35;;;7.20;;
9306;SDS011;4691;47.612;7.610;2022-10-13T14:03:43;14.88;;;7.32;;
9306;SDS011;4691;47.612;7.610;2022-10-13T14:06:43;13.70;;;7.50;;
9306;SDS011;4691;47.612;7.610;2022-10-13T14:09:51;16.67;;;8.02;;
9306;SDS011;4691;47.612;7.610;2022-10-13T14:13:11;15.75;;;8.23;;
9306;SDS011;4691;47.612;7.610;2022-10-13T14:15:40;14.75;;;9.25;;
9306;SDS011;4691;47.612;7.610;2022-10-13T14:18:22;17.38;;;8.60;;
9306;SDS011;4691;47.612;7.610;2022-10-13T14:20:54;28.38;;;8.57;;
9306;SDS011;4691;47.612;7.610;2022-10-13T14:23:37;21.13;;;8.70;;
9306;SDS011;4691;47.612;7.610;2022-10-13T14:26:10;24.27;;;9.77;;
9306;SDS011;4691;47.612;7.610;2022-10-13T14:28:53;19.92;;;9.80;;
9306;SDS011;4691;47.612;7.610;2022-10-13T14:31:27;20.33;;;9.48;;
9306;SDS011;4691;47.612;7.610;2022-10-13T14:34:13;20.75;;;8.95;;
9306;SDS011;4691;47.612;7.610;2022-10-13T14:36:53;23.65;;;9.88;;
9306;SDS011;4691;47.612;7.610;2022-10-13T14:39:24;17.45;;;9.65;;
9306;SDS011;4691;47.612;7.610;2022-10-13T14:41:52;18.30;;;9.95;;
9306;SDS011;4691;47.612;7.610;2022-10-13T14:44:17;17.60;;;10.00;;
9306;SDS011;4691;47.612;7.610;2022-10-13T14:46:43;21.17;;;10.18;;
9306;SDS011;4691;47.612;7.610;2022-10-13T14:49:08;21.73;;;10.68;;
9306;SDS011;4691;47.612;7.610;2022-10-13T14:51:34;20.25;;;9.88;;
9306;SDS011;4691;47.612;7.610;2022-10-13T14:54:00;19.05;;;10.35;;
9306;SDS011;4691;47.612;7.610;2022-10-13T14:56:30;25.05;;;11.52;;
9306;SDS011;4691;47.612;7.610;2022-10-13T14:58:56;22.92;;;11.27;;
9306;SDS011;4691;47.612;7.610;2022-10-13T15:01:22;18.77;;;11.38;;
9306;SDS011;4691;47.612;7.610;2022-10-13T15:03:48;23.85;;;11.85;;
9306;SDS011;4691;47.612;7.610;2022-10-13T15:06:18;21.85;;;12.05;;
9306;SDS011;4691;47.612;7.610;2022-10-13T15:08:45;23.88;;;11.48;;
9306;SDS011;4691;47.612;7.610;2022-10-13T15:11:11;25.50;;;11.70;;
9306;SDS011;4691;47.612;7.610;2022-10-13T15:13:37;18.05;;;11.40;;
9306;SDS011;4691;47.612;7.610;2022-10-13T15:16:04;26.17;;;11.63;;
9306;SDS011;4691;47.612;7.610;2022-10-13T15:18:30;20.67;;;12.05;;
9306;SDS011;4691;47.612;7.610;2022-10-13T15:20:56;24.75;;;13.43;;
9306;SDS011;4691;47.612;7.610;2022-10-13T15:23:22;22.42;;;12.45;;
9306;SDS011;4691;47.612;7.610;2022-10-13T15:25:57;25.02;;;12.43;;
9306;SDS011;4691;47.612;7.610;2022-10-13T15:28:27;22.30;;;12.32;;
9306;SDS011;4691;47.612;7.610;2022-10-13T15:30:54;30.27;;;13.43;;
9306;SDS011;4691;47.612;7.610;2022-10-13T15:33:20;24.20;;;12.88;;
9306;SDS011;4691;47.612;7.610;2022-10-13T15:35:47;25.45;;;13.07;;
9306;SDS011;4691;47.612;7.610;2022-10-13T15:38:13;27.38;;;11.90;;
9306;SDS011;4691;47.612;7.610;2022-10-13T15:40:39;19.33;;;11.88;;
9306;SDS011;4691;47.612;7.610;2022-10-13T15:43:05;31.73;;;12.18;;
9306;SDS011;4691;47.612;7.610;2022-10-13T15:45:31;24.23;;;12.52;;
9306;SDS011;4691;47.612;7.610;2022-10-13T15:47:57;24.08;;;11.55;;
9306;SDS011;4691;47.612;7.610;2022-10-13T15:50:23;22.10;;;11.80;;
9306;SDS011;4691;47.612;7.610;2022-10-13T15:52:49;24.73;;;13.38;;
9306;SDS011;4691;47.612;7.610;2022-10-13T15:55:14;20.23;;;12.10;;
9306;SDS011;4691;47.612;7.610;2022-10-13T15:57:40;23.25;;;12.05;;
9306;SDS011;4691;47.612;7.610;2022-10-13T16:00:06;27.02;;;11.77;;
9306;SDS011;4691;47.612;7.610;2022-10-13T16:02:32;21.23;;;11.32;;
9306;SDS011;4691;47.612;7.610;2022-10-13T16:04:58;20.17;;;11.00;;
9306;SDS011;4691;47.612;7.610;2022-10-13T16:07:28;26.00;;;11.38;;
9306;SDS011;4691;47.612;7.610;2022-10-13T16:09:54;19.05;;;10.80;;
9306;SDS011;4691;47.612;7.610;2022-10-13T16:12:20;17.67;;;10.98;;
9306;SDS011;4691;47.612;7.610;2022-10-13T16:14:45;19.33;;;10.40;;
9306;SDS011;4691;47.612;7.610;2022-10-13T16:17:10;26.40;;;10.35;;
9306;SDS011;4691;47.612;7.610;2022-10-13T16:19:36;20.42;;;10.68;;
9306;SDS011;4691;47.612;7.610;2022-10-13T16:22:01;19.67;;;9.50;;
9306;SDS011;4691;47.612;7.610;2022-10-13T16:24:27;24.23;;;10.23;;
9306;SDS011;4691;47.612;7.610;2022-10-13T16:26:53;24.75;;;10.30;;
9306;SDS011;4691;47.612;7.610;2022-10-13T16:29:18;37.38;;;17.52;;
9306;SDS011;4691;47.612;7.610;2022-10-13T16:31:46;23.00;;;10.60;;
9306;SDS011;4691;47.612;7.610;2022-10-13T16:34:11;22.38;;;10.93;;
9306;SDS011;4691;47.612;7.610;2022-10-13T16:36:36;18.63;;;10.32;;
9306;SDS011;4691;47.612;7.610;2022-10-13T16:39:02;22.58;;;10.43;;
9306;SDS011;4691;47.612;7.610;2022-10-13T16:41:27;20.05;;;10.40;;
9306;SDS011;4691;47.612;7.610;2022-10-13T16:43:53;16.92;;;10.77;;
9306;SDS011;4691;47.612;7.610;2022-10-13T16:46:20;21.45;;;12.52;;
9306;SDS011;4691;47.612;7.610;2022-10-13T16:48:51;19.33;;;12.10;;
9306;SDS011;4691;47.612;7.610;2022-10-13T16:51:23;25.20;;;12.70;;
9306;SDS011;4691;47.612;7.610;2022-10-13T16:53:57;19.60;;;11.68;;
9306;SDS011;4691;47.612;7.610;2022-10-13T16:56:24;22.85;;;12.57;;
9306;SDS011;4691;47.612;7.610;2022-10-13T16:58:54;22.52;;;12.88;;
9306;SDS011;4691;47.612;7.610;2022-10-13T20:11:18;33.53;;;21.55;;
9306;SDS011;4691;47.612;7.610;2022-10-13T20:13:44;31.20;;;20.70;;
9306;SDS011;4691;47.612;7.610;2022-10-13T20:16:12;34.03;;;22.52;;
9306;SDS011;4691;47.612;7.610;2022-10-13T20:18:39;33.58;;;21.70;;
9306;SDS011;4691;47.612;7.610;2022-10-13T20:21:06;34.08;;;21.20;;
9306;SDS011;4691;47.612;7.610;2022-10-13T20:23:34;32.22;;;19.98;;
9306;SDS011;4691;47.612;7.610;2022-10-13T20:26:03;36.10;;;20.50;;
9306;SDS011;4691;47.612;7.610;2022-10-13T20:28:29;31.67;;;20.25;;
9306;SDS011;4691;47.612;7.610;2022-10-13T20:30:55;26.27;;;18.52;;